Terminal Aerodrome Forecast
Issued by NWS Cleveland, OH

Home | Current Version | Previous Version | Graphics & Text | Print | Product List | Glossary On
Versions: 1 2 3 4 5 6 7 8 9 10 11 12 13 14 15 16 17 18 19 20 21 22 23 24 25 26 27
387
FTUS41 KCLE 261140
TAFCLE
TAF
KCLE 261140Z 2612/2718 31010KT P6SM OVC015
      TEMPO 2612/2614 3SM -SHRA BR BKN008
     FM261500 29010KT P6SM OVC025
     FM261900 29008KT P6SM BKN035
     FM270100 13005KT P6SM OVC025
     FM270600 14008KT P6SM VCSH OVC015=

USA.gov is the U.S. government's official web portal to all federal, state and local government web resources and services.